Time;durP1;ratioP1;P1;durP2;ratioP2;P2;SDS_P1;SDS_P2;PMS_P1;PMS_P2;Temp;Humidity;BMP_temperature;BMP_pressure;BME280_temperature;BME280_humidity;BME280_pressure;Samples;Min_cycle;Max_cycle;Signal;HPM_P1;HPM_P2
2022/04/29 00:00:16;;;;;;;22.30;11.95;;;;;;;-0.91;55.56;100752.30;1802808;78;20994;-61
2022/04/29 00:02:46;;;;;;;24.37;13.10;;;;;;;-0.89;55.64;100753.19;1740414;81;21584;-61
2022/04/29 00:05:14;;;;;;;21.68;12.13;;;;;;;-0.86;55.69;100755.80;1796337;78;20969;-61
2022/04/29 00:07:41;;;;;;;22.62;12.05;;;;;;;-0.85;55.66;100762.64;1791021;78;21080;-61
2022/04/29 00:10:12;;;;;;;25.62;13.53;;;;;;;-0.81;55.81;100759.30;1788291;78;20988;-61
2022/04/29 00:12:43;;;;;;;22.42;12.90;;;;;;;-0.81;55.85;100759.30;1791914;78;20923;-60
2022/04/29 00:15:14;;;;;;;19.35;11.60;;;;;;;-0.79;55.93;100764.02;1787064;78;21068;-62
2022/04/29 00:17:41;;;;;;;20.92;11.97;;;;;;;-0.76;56.03;100761.92;1800358;78;20962;-61
2022/04/29 00:20:12;;;;;;;22.98;12.03;;;;;;;-0.75;56.13;100754.27;1783245;78;21106;-61
2022/04/29 00:22:40;;;;;;;22.05;12.33;;;;;;;-0.76;56.18;100757.64;1796339;78;21263;-61
2022/04/29 00:25:09;;;;;;;23.52;12.82;;;;;;;-0.78;56.20;100756.78;1800526;78;21017;-62
2022/04/29 00:27:36;;;;;;;21.70;12.28;;;;;;;-0.78;56.25;100756.78;1798288;78;20985;-61
2022/04/29 00:30:08;;;;;;;20.17;11.38;;;;;;;-0.76;56.31;100756.36;1810676;78;21554;-61
2022/04/29 00:32:35;;;;;;;23.38;11.90;;;;;;;-0.75;56.43;100760.67;1800005;78;21156;-61
2022/04/29 00:35:02;;;;;;;;;;;;;;;-0.76;56.50;100757.64;1812806;78;20937;-62
2022/04/29 00:37:30;;;;;;;25.43;12.43;;;;;;;-0.81;56.65;100754.17;1806062;78;20429;-61
2022/04/29 00:39:57;;;;;;;22.27;12.37;;;;;;;-0.86;56.56;100754.52;1809450;78;20983;-61
2022/04/29 00:42:24;;;;;;;26.15;12.15;;;;;;;-0.91;56.77;100751.87;1797520;78;21358;-61
2022/04/29 00:44:51;;;;;;;20.23;11.85;;;;;;;-0.93;56.92;100752.25;1788872;78;21460;-61
2022/04/29 00:47:21;;;;;;;26.27;12.20;;;;;;;-0.93;57.03;100748.83;1803857;78;20988;-61
2022/04/29 00:49:49;;;;;;;24.30;13.13;;;;;;;-0.94;57.03;100749.69;1795698;78;20945;-61
2022/04/29 00:52:19;;;;;;;20.32;12.40;;;;;;;-0.93;57.11;100748.83;1795242;78;21238;-61
2022/04/29 00:54:51;;;;;;;27.80;13.35;;;;;;;-0.92;57.19;100745.45;1799153;78;20950;-61
2022/04/29 00:57:29;;;;;;;21.95;12.15;;;;;;;-0.87;57.25;100748.06;1793778;78;21111;-61
2022/04/29 01:00:09;;;;;;;24.20;12.45;;;;;;;-0.85;57.27;100752.38;1795884;78;20997;-61
2022/04/29 01:02:41;;;;;;;23.95;12.45;;;;;;;-0.85;57.34;100743.41;1806631;78;20961;-61
2022/04/29 01:05:15;;;;;;;24.25;12.00;;;;;;;-0.85;57.33;100743.41;1801283;78;21022;-61
2022/04/29 01:07:44;;;;;;;19.32;11.57;;;;;;;-0.86;57.34;100743.41;1804738;78;21102;-61
2022/04/29 01:10:12;;;;;;;22.45;11.90;;;;;;;-0.84;57.37;100748.11;1794511;78;21045;-62
2022/04/29 01:12:42;;;;;;;22.50;11.70;;;;;;;-0.86;57.45;100748.11;1790932;78;20965;-61
2022/04/29 01:15:13;;;;;;;25.12;12.00;;;;;;;-0.88;57.54;100745.92;1806960;78;20995;-61
2022/04/29 01:17:43;;;;;;;18.85;11.28;;;;;;;-0.90;57.66;100738.63;1807881;78;21022;-61
2022/04/29 01:20:16;;;;;;;20.57;10.30;;;;;;;-0.92;57.73;100741.19;1810746;78;21062;-61
2022/04/29 01:22:44;;;;;;;20.85;10.43;;;;;;;-0.91;57.92;100733.92;1811430;78;21789;-61
2022/04/29 01:25:12;;;;;;;18.75;11.08;;;;;;;-0.91;57.93;100737.77;1796986;78;21056;-61
2022/04/29 01:27:39;;;;;;;18.40;10.72;;;;;;;-0.91;57.96;100734.34;1797300;78;20960;-61
2022/04/29 01:30:17;;;;;;;21.87;11.65;;;;;;;-0.94;58.08;100731.73;1801123;78;21043;-61
2022/04/29 01:32:45;;;;;;;24.02;12.33;;;;;;;-0.95;58.18;100731.30;1797147;78;21557;-61
2022/04/29 01:35:14;;;;;;;16.27;11.43;;;;;;;-0.97;58.25;100726.56;1807693;78;21457;-62
2022/04/29 01:37:46;;;;;;;18.42;11.75;;;;;;;-0.98;58.35;100726.10;1809485;78;20917;-61
2022/04/29 01:40:13;;;;;;;22.00;11.10;;;;;;;-0.98;58.42;100723.14;1801511;78;21530;-61
2022/04/29 01:42:41;;;;;;;32.53;13.68;;;;;;;-0.99;58.54;100724.39;1809729;78;21047;-61
2022/04/29 01:45:09;;;;;;;25.40;11.90;;;;;;;-1.01;58.65;100724.38;1801252;78;21704;-61
2022/04/29 01:47:36;;;;;;;22.25;10.82;;;;;;;-1.03;58.71;100723.91;1800102;78;22002;-61
2022/04/29 01:50:04;;;;;;;20.37;11.27;;;;;;;-1.07;58.81;100722.13;1804440;78;20906;-61
2022/04/29 01:52:31;;;;;;;17.20;9.98;;;;;;;-1.09;58.88;100720.83;1797142;78;20956;-61
2022/04/29 01:54:58;;;;;;;18.07;9.88;;;;;;;-1.13;58.97;100718.61;1799746;78;20894;-61
2022/04/29 01:57:25;;;;;;;20.77;10.28;;;;;;;-1.14;59.10;100714.34;1795042;78;21632;-61
2022/04/29 01:59:52;;;;;;;17.27;9.35;;;;;;;-1.14;59.16;100711.78;1798165;78;20985;-61
2022/04/29 02:02:21;;;;;;;17.42;10.30;;;;;;;-1.18;59.24;100709.98;1797476;78;22364;-61
2022/04/29 02:04:47;;;;;;;20.02;10.10;;;;;;;-1.15;59.33;100710.06;1797526;78;20978;-61
2022/04/29 02:07:14;;;;;;;23.62;8.83;;;;;;;-1.07;59.19;100707.59;1809215;78;21603;-61
2022/04/29 02:09:41;;;;;;;20.27;9.03;;;;;;;-1.03;59.31;100705.97;1801943;78;20985;-61
2022/04/29 02:12:09;;;;;;;12.93;8.78;;;;;;;-1.00;59.38;100698.33;1802818;78;21103;-61
2022/04/29 02:14:39;;;;;;;14.18;8.80;;;;;;;-0.98;59.53;100706.88;1806891;78;20892;-61
2022/04/29 02:17:09;;;;;;;19.20;9.88;;;;;;;-0.92;59.56;100705.71;1792237;78;21081;-61
2022/04/29 02:19:37;;;;;;;16.62;8.15;;;;;;;-0.92;59.66;100704.01;1803143;78;20977;-61
2022/04/29 02:22:07;;;;;;;15.72;8.70;;;;;;;-0.87;59.72;100710.46;1803985;78;21060;-61
2022/04/29 02:24:33;;;;;;;21.33;8.85;;;;;;;-0.80;59.61;100704.60;1794700;78;21084;-61
2022/04/29 02:27:00;;;;;;;10.82;7.42;;;;;;;-0.74;59.69;100704.69;1814379;78;20988;-61
2022/04/29 02:29:28;;;;;;;12.00;7.65;;;;;;;-0.65;59.79;100710.36;1811798;78;20967;-61
2022/04/29 02:31:55;;;;;;;;;;;;;;;-0.57;59.89;100706.62;1771860;79;20983;-61
2022/04/29 02:34:23;;;;;;;15.93;8.25;;;;;;;-0.49;60.04;100705.03;1746350;81;20179;-61
2022/04/29 02:36:50;;;;;;;15.32;7.78;;;;;;;-0.41;60.03;100707.70;1778909;79;21106;-61
2022/04/29 02:39:17;;;;;;;13.75;8.03;;;;;;;-0.34;60.18;100710.34;1767445;79;21628;-61
2022/04/29 02:41:44;;;;;;;11.63;7.90;;;;;;;-0.29;60.17;100707.42;1776540;79;21502;-62
2022/04/29 02:44:11;;;;;;;;;;;;;;;-0.32;60.16;100709.95;1798056;78;20983;-61
2022/04/29 02:47:06;;;;;;;14.55;8.43;;;;;;;-0.28;60.25;100705.32;1793921;78;20079;-61
2022/04/29 02:49:06;;;;;;;13.68;7.53;;;;;;;-0.29;60.28;100706.57;1797729;78;21585;-62
2022/04/29 02:51:32;;;;;;;17.67;8.77;;;;;;;-0.23;60.16;100703.65;1792309;78;20993;-62
2022/04/29 02:53:59;;;;;;;20.27;8.30;;;;;;;-0.26;60.44;100698.48;1803395;78;20971;-61
2022/04/29 02:56:26;;;;;;;21.90;8.60;;;;;;;-0.20;60.39;100696.84;1793813;78;21091;-61
2022/04/29 02:58:52;;;;;;;17.17;8.77;;;;;;;-0.31;60.43;100695.02;1799092;78;20949;-61
2022/04/29 03:01:19;;;;;;;15.72;9.13;;;;;;;-0.35;60.41;100695.81;1803087;78;21602;-61
2022/04/29 03:03:46;;;;;;;21.03;8.37;;;;;;;-0.46;60.52;100689.67;1808302;78;20984;-61
2022/04/29 03:06:12;;;;;;;12.13;7.33;;;;;;;-0.52;60.63;100696.02;1818854;78;20977;-62
2022/04/29 03:08:39;;;;;;;16.37;7.53;;;;;;;-0.52;60.74;100698.16;1796474;78;21106;-62
2022/04/29 03:11:05;;;;;;;16.75;7.60;;;;;;;-0.46;60.90;100689.67;1806327;78;21516;-61
2022/04/29 03:13:32;;;;;;;12.43;7.83;;;;;;;-0.40;61.10;100694.87;1779349;79;21508;-61
2022/04/29 03:15:59;;;;;;;13.53;8.40;;;;;;;-0.34;61.16;100688.54;1768009;79;21071;-61
2022/04/29 03:18:26;;;;;;;17.92;8.43;;;;;;;-0.30;61.21;100687.75;1775213;79;21599;-61
2022/04/29 03:20:56;;;;;;;12.95;8.18;;;;;;;-0.23;61.32;100701.08;1768818;79;22132;-62
2022/04/29 03:23:24;;;;;;;15.10;8.58;;;;;;;-0.15;61.23;100695.19;1770648;79;20920;-61
2022/04/29 03:25:51;;;;;;;15.63;8.68;;;;;;;-0.09;61.24;100704.24;1761697;81;21242;-61
2022/04/29 03:28:17;;;;;;;38.15;10.03;;;;;;;-0.03;61.32;100697.89;1761591;81;21046;-61
2022/04/29 03:30:45;;;;;;;26.07;9.13;;;;;;;0.05;61.37;100693.70;1765897;79;20997;-62
2022/04/29 03:33:12;;;;;;;53.42;10.53;;;;;;;0.10;61.43;100690.77;1763207;79;21623;-61
2022/04/29 03:35:42;;;;;;;15.60;7.95;;;;;;;0.20;61.46;100690.03;1774693;79;21010;-61
2022/04/29 03:38:09;;;;;;;17.37;8.58;;;;;;;0.45;61.40;100694.14;1756600;80;21066;-61
2022/04/29 03:40:36;;;;;;;13.20;8.03;;;;;;;0.68;61.28;100694.34;1764281;80;20985;-61
2022/04/29 03:43:03;;;;;;;14.10;7.42;;;;;;;1.03;61.55;100689.45;1800283;78;21566;-62
2022/04/29 03:45:30;;;;;;;15.93;8.68;;;;;;;1.60;61.81;100687.23;1769274;79;25051;-62
2022/04/29 03:47:58;;;;;;;17.55;7.33;;;;;;;2.20;61.69;100690.02;1770662;79;27577;-62
2022/04/29 03:50:27;;;;;;;15.83;7.35;;;;;;;2.74;61.61;100689.64;1768881;79;21131;-62
2022/04/29 03:53:03;;;;;;;13.48;7.42;;;;;;;3.30;61.55;100682.70;1769091;79;21544;-62
2022/04/29 03:55:32;;;;;;;16.42;9.28;;;;;;;3.90;61.37;100682.53;1770804;79;21046;-62
2022/04/29 03:58:02;;;;;;;17.07;7.33;;;;;;;4.44;61.15;100680.05;1770564;79;21001;-62
2022/04/29 04:00:33;;;;;;;11.15;6.40;;;;;;;4.80;60.40;100677.20;1772344;79;20991;-62
2022/04/29 04:03:05;;;;;;;18.02;7.78;;;;;;;5.03;60.21;100677.84;1763203;79;21488;-62
2022/04/29 04:05:30;;;;;;;15.10;7.92;;;;;;;5.32;60.22;100680.17;1773557;79;20936;-62
2022/04/29 04:07:57;;;;;;;15.58;8.48;;;;;;;5.78;60.29;100671.00;1767053;80;20958;-62
2022/04/29 04:12:45;;;;;;;19.17;9.53;;;;;;;6.93;60.04;100666.30;1809063;77;27876;-61
2022/04/29 04:15:12;;;;;;;10.32;7.33;;;;;;;7.62;60.58;100670.67;1787242;78;21020;-61
2022/04/29 04:17:40;;;;;;;12.93;7.25;;;;;;;8.64;60.84;100677.13;1782833;78;21372;-61
2022/04/29 04:20:09;;;;;;;10.13;5.85;;;;;;;9.67;60.98;100671.84;1749617;81;20949;-61
2022/04/29 04:22:37;;;;;;;15.70;7.45;;;;;;;10.74;60.84;100674.66;1741473;81;20970;-61
2022/04/29 04:25:10;;;;;;;9.90;5.70;;;;;;;11.74;60.78;100673.81;1711504;81;20965;-61
2022/04/29 04:27:38;;;;;;;11.22;6.42;;;;;;;12.60;60.56;100665.27;1745274;81;20993;-62
2022/04/29 04:30:24;;;;;;;13.22;6.20;;;;;;;13.52;60.06;100661.39;1738229;80;21104;-62
2022/04/29 04:32:56;;;;;;;8.70;6.08;;;;;;;14.18;59.67;100661.48;1656072;85;21542;-62
2022/04/29 04:35:23;;;;;;;9.98;6.35;;;;;;;14.86;59.27;100661.23;1661679;84;20989;-61
2022/04/29 04:37:50;;;;;;;15.90;6.67;;;;;;;15.10;58.11;100658.30;1658123;85;21119;-61
2022/04/29 04:40:17;;;;;;;37.70;7.95;;;;;;;15.22;57.94;100660.30;1660483;84;21542;-61
2022/04/29 04:42:47;;;;;;;52.40;9.80;;;;;;;15.31;57.00;100659.81;1659465;85;21475;-62
2022/04/29 04:45:14;;;;;;;29.77;13.03;;;;;;;15.43;57.24;100656.55;1630544;86;21041;-62
2022/04/29 04:47:41;;;;;;;51.35;14.33;;;;;;;15.71;56.71;100651.62;1663139;84;22388;-62
2022/04/29 04:50:11;;;;;;;34.08;10.15;;;;;;;15.93;56.37;100659.20;1658723;84;21094;-62
2022/04/29 04:52:41;;;;;;;38.33;8.10;;;;;;;16.08;56.41;100663.66;1661276;84;20978;-62
2022/04/29 04:55:10;;;;;;;37.00;7.55;;;;;;;16.37;56.24;100658.53;1664002;85;21456;-62
2022/04/29 04:57:37;;;;;;;54.53;9.48;;;;;;;16.76;56.23;100661.55;1664519;85;21131;-62
2022/04/29 05:00:08;;;;;;;46.70;9.03;;;;;;;17.39;56.50;100655.19;1658871;85;21028;-64
2022/04/29 05:02:34;;;;;;;59.40;11.30;;;;;;;17.87;55.54;100657.09;1665758;85;21042;-63
2022/04/29 05:05:01;;;;;;;51.53;9.83;;;;;;;18.23;55.62;100664.08;1661126;85;21012;-64
2022/04/29 05:07:29;;;;;;;15.75;7.40;;;;;;;18.75;55.29;100666.02;1666740;84;21783;-63
2022/04/29 05:09:57;;;;;;;15.23;6.97;;;;;;;18.90;55.37;100666.78;1640507;84;21065;-63
2022/04/29 05:12:24;;;;;;;11.88;6.35;;;;;;;19.30;54.88;100672.88;1662758;84;21101;-62
2022/04/29 05:14:51;;;;;;;10.95;6.60;;;;;;;19.52;54.21;100675.35;1659748;85;20977;-63
2022/04/29 05:17:17;;;;;;;;;;;;;;;19.60;53.43;100669.05;1664995;84;21031;-63
2022/04/29 05:19:46;;;;;;;10.45;5.90;;;;;;;19.35;52.26;100668.13;1668726;85;21444;-63
2022/04/29 05:22:13;;;;;;;10.05;5.87;;;;;;;19.48;53.11;100669.91;1661817;85;21511;-63
2022/04/29 05:24:42;;;;;;;11.90;7.03;;;;;;;19.64;52.20;100679.33;1662028;85;21088;-63
2022/04/29 05:27:08;;;;;;;14.43;6.33;;;;;;;19.69;52.26;100677.73;1653649;85;21054;-63
2022/04/29 05:29:35;;;;;;;18.82;7.40;;;;;;;20.18;52.59;100678.19;1637787;86;20965;-63
2022/04/29 05:32:03;;;;;;;14.75;7.35;;;;;;;20.59;52.18;100679.67;1668962;84;21914;-63
2022/04/29 05:34:32;;;;;;;11.20;6.60;;;;;;;20.90;51.55;100677.37;1634938;85;21575;-62
2022/04/29 05:37:01;;;;;;;12.55;7.00;;;;;;;20.62;50.45;100676.78;1637029;86;21120;-63
2022/04/29 05:42:17;;;;;;;20.57;6.20;;;;;;;20.52;50.13;100677.05;1675699;84;21090;-63
2022/04/29 05:44:46;;;;;;;10.70;6.95;;;;;;;20.79;49.30;100684.33;1675918;83;21244;-63
2022/04/29 05:47:15;;;;;;;12.90;6.97;;;;;;;20.91;49.90;100681.72;1671041;84;21548;-63
2022/04/29 05:49:42;;;;;;;8.88;6.25;;;;;;;20.92;48.89;100691.36;1670802;85;21116;-63
2022/04/29 05:52:09;;;;;;;13.10;6.55;;;;;;;20.65;48.11;100688.98;1673251;84;21676;-63
2022/04/29 05:54:37;;;;;;;15.55;6.85;;;;;;;20.37;48.18;100690.12;1649820;85;21154;-63
2022/04/29 05:57:05;;;;;;;16.23;6.37;;;;;;;20.50;48.35;100690.91;1677194;84;21471;-63
2022/04/29 05:59:32;;;;;;;13.83;5.78;;;;;;;20.74;48.04;100689.13;1673157;84;21097;-63
2022/04/29 06:02:03;;;;;;;12.40;5.28;;;;;;;21.06;48.21;100693.84;1673520;84;21082;-64
2022/04/29 06:04:30;;;;;;;10.32;6.47;;;;;;;21.30;46.49;100695.58;1669641;84;21221;-64
2022/04/29 06:06:57;;;;;;;11.45;6.45;;;;;;;20.86;46.84;100697.13;1673701;83;21644;-64
2022/04/29 06:09:25;;;;;;;8.50;5.78;;;;;;;20.69;46.97;100691.27;1672660;84;21076;-63
2022/04/29 06:11:53;;;;;;;14.23;6.60;;;;;;;20.77;46.50;100694.20;1672219;84;21102;-63
2022/04/29 06:14:20;;;;;;;16.15;6.92;;;;;;;20.76;46.90;100697.83;1667410;84;21030;-62
2022/04/29 06:16:47;;;;;;;10.80;5.53;;;;;;;21.12;46.71;100709.31;1661044;84;21104;-62
2022/04/29 06:19:14;;;;;;;13.55;6.30;;;;;;;20.99;45.26;100705.88;1663790;84;21028;-62
2022/04/29 06:21:41;;;;;;;13.93;5.30;;;;;;;20.30;44.61;100713.58;1662660;85;22273;-62
2022/04/29 06:24:09;;;;;;;10.18;5.62;;;;;;;18.98;43.00;100714.27;1664754;84;21434;-62
2022/04/29 06:26:35;;;;;;;12.35;6.67;;;;;;;18.10;44.24;100717.73;1658855;85;20965;-62
2022/04/29 06:29:02;;;;;;;13.62;6.75;;;;;;;17.86;44.89;100725.86;1662718;84;21009;-62
2022/04/29 06:31:29;;;;;;;9.58;5.25;;;;;;;17.76;44.08;100717.64;1661861;85;21095;-62
2022/04/29 06:33:56;;;;;;;11.83;6.15;;;;;;;18.14;45.41;100720.19;1641339;86;21792;-62
2022/04/29 06:36:23;;;;;;;14.93;6.12;;;;;;;18.53;45.14;100714.98;1629971;87;21634;-62
2022/04/29 06:38:50;;;;;;;10.08;5.50;;;;;;;18.56;44.32;100717.44;1643476;86;21617;-63
2022/04/29 06:41:16;;;;;;;12.88;6.42;;;;;;;18.34;44.19;100723.73;1639708;87;21048;-65
2022/04/29 06:43:43;;;;;;;11.33;6.40;;;;;;;18.07;44.26;100728.50;1624582;87;21161;-64
2022/04/29 06:46:10;;;;;;;12.43;5.70;;;;;;;18.27;44.14;100725.08;1636369;86;21430;-63
2022/04/29 06:48:36;;;;;;;;;;;;;;;18.59;44.91;100728.77;1626713;88;21034;-62
2022/04/29 06:51:03;;;;;;;12.45;5.67;;;;;;;19.03;44.57;100719.75;1643391;86;20188;-63
2022/04/29 06:53:30;;;;;;;11.53;4.80;;;;;;;19.29;44.62;100723.28;1639186;86;21076;-63
2022/04/29 06:55:57;;;;;;;22.58;5.83;;;;;;;19.23;43.94;100719.25;1639905;86;21056;-64
2022/04/29 06:58:24;;;;;;;12.25;4.50;;;;;;;19.05;44.20;100723.99;1632861;87;21077;-64
2022/04/29 07:00:51;;;;;;;15.58;6.08;;;;;;;19.29;43.88;100726.77;1632252;87;21135;-64
2022/04/29 07:03:18;;;;;;;13.95;5.10;;;;;;;19.41;44.45;100720.66;1631900;87;21503;-64
2022/04/29 07:05:44;;;;;;;;;;;;;;;19.35;43.44;100722.86;1634997;87;22112;-64
2022/04/29 07:08:13;;;;;;;27.58;6.83;;;;;;;19.32;43.62;100721.75;1639595;86;20092;-64
2022/04/29 07:10:40;;;;;;;13.65;4.72;;;;;;;19.30;43.65;100725.84;1627595;87;21068;-64
2022/04/29 07:13:06;;;;;;;9.93;3.80;;;;;;;19.49;43.95;100729.87;1639678;86;21004;-64
2022/04/29 07:15:33;;;;;;;11.88;4.33;;;;;;;19.27;42.76;100720.75;1638267;87;20985;-64
2022/04/29 07:17:59;;;;;;;;;;;;;;;18.81;43.13;100731.74;1637899;86;21069;-63
2022/04/29 07:20:26;;;;;;;8.80;4.08;;;;;;;18.58;43.37;100729.73;1633439;86;20150;-63
2022/04/29 07:22:53;;;;;;;17.82;4.05;;;;;;;18.50;43.69;100733.70;1638378;86;21574;-63
2022/04/29 07:25:20;;;;;;;7.42;3.17;;;;;;;17.77;42.50;100738.30;1633194;86;21017;-62
2022/04/29 07:27:48;;;;;;;;;;;;;;;16.60;41.62;100745.07;1635623;87;20986;-63
2022/04/29 07:30:16;;;;;;;7.03;2.62;;;;;;;15.30;41.96;100743.63;1634056;86;20291;-61
2022/04/29 07:32:43;;;;;;;7.42;2.30;;;;;;;14.34;42.77;100747.84;1656582;84;21108;-63
2022/04/29 07:43:30;;;;;;;6.05;2.42;;;;;;;13.66;43.94;100740.35;1594398;88;21791;-62
2022/04/29 07:45:58;;;;;;;5.25;1.82;;;;;;;13.37;44.01;100741.63;1593080;88;21041;-61
2022/04/29 07:48:26;;;;;;;7.67;2.10;;;;;;;13.54;44.76;100743.52;1592811;88;21234;-63
2022/04/29 07:50:53;;;;;;;6.35;2.10;;;;;;;13.29;44.81;100740.25;1599893;88;21110;-63
2022/04/29 07:53:22;;;;;;;10.03;2.30;;;;;;;12.98;44.47;100738.87;1603944;88;21005;-61
2022/04/29 07:55:49;;;;;;;5.58;1.62;;;;;;;12.79;44.85;100736.13;1568294;90;21677;-63
2022/04/29 07:58:16;;;;;;;4.80;1.75;;;;;;;12.64;45.34;100742.00;1593992;88;21587;-63
2022/04/29 08:00:43;;;;;;;6.60;1.95;;;;;;;12.69;45.14;100735.66;1563022;90;21128;-64
2022/04/29 08:03:10;;;;;;;4.75;2.00;;;;;;;12.70;45.57;100742.59;1584577;88;27018;-64
2022/04/29 08:05:37;;;;;;;10.43;2.05;;;;;;;13.00;45.68;100740.98;1610880;87;21196;-64
2022/04/29 08:08:04;;;;;;;5.25;2.60;;;;;;;13.21;45.58;100735.28;1589566;89;21618;-64
2022/04/29 08:10:34;;;;;;;7.62;1.98;;;;;;;12.99;45.10;100738.82;1609951;87;21578;-67
2022/04/29 08:13:03;;;;;;;9.13;2.60;;;;;;;12.95;45.67;100739.00;1610362;87;21137;-66
2022/04/29 08:15:32;;;;;;;11.50;2.98;;;;;;;13.12;45.84;100741.77;1646231;85;21040;-65
2022/04/29 08:17:59;;;;;;;5.15;2.33;;;;;;;12.97;45.67;100743.27;1644836;85;21069;-66
2022/04/29 08:20:27;;;;;;;12.13;2.60;;;;;;;13.00;45.92;100735.73;1666666;84;21109;-66
2022/04/29 08:22:53;;;;;;;;;;;;;;;13.12;46.05;100736.98;1679342;84;21546;-66
2022/04/29 08:25:20;;;;;;;8.58;2.80;;;;;;;13.23;46.08;100741.79;1662013;84;22058;-66
2022/04/29 08:27:50;;;;;;;4.35;2.27;;;;;;;13.28;46.07;100736.78;1662582;84;21141;-66
2022/04/29 08:30:17;;;;;;;5.28;2.60;;;;;;;13.19;46.05;100744.55;1660622;85;21029;-66
2022/04/29 08:32:47;;;;;;;11.10;3.25;;;;;;;13.34;46.30;100747.47;1676986;84;21022;-67
2022/04/29 08:35:15;;;;;;;6.85;2.87;;;;;;;13.46;46.29;100727.26;1635451;87;22264;-65
2022/04/29 08:37:44;;;;;;;5.40;3.08;;;;;;;13.46;46.42;100743.00;1659005;84;21181;-66
2022/04/29 08:40:13;;;;;;;8.30;2.52;;;;;;;13.27;46.25;100734.20;1627797;86;21024;-67
2022/04/29 08:42:41;;;;;;;5.22;2.15;;;;;;;13.10;46.49;100734.42;1664761;85;21024;-62
2022/04/29 08:45:14;;;;;;;5.35;2.17;;;;;;;13.29;46.44;100735.00;1668075;85;21562;-62
2022/04/29 08:47:45;;;;;;;9.28;2.22;;;;;;;13.16;46.24;100738.13;1668431;85;21527;-62
2022/04/29 08:50:27;;;;;;;3.42;2.00;;;;;;;13.35;46.79;100730.80;1667260;85;21964;-63
2022/04/29 08:52:50;;;;;;;5.15;2.10;;;;;;;13.58;46.32;100728.49;1667504;84;21000;-65
2022/04/29 09:00:51;;;;;;;2.12;1.15;;;;;;;13.34;44.89;100739.13;1633577;86;21091;-65
2022/04/29 09:03:21;;;;;;;1.75;1.30;;;;;;;13.12;44.47;100731.28;1664978;84;21816;-64
2022/04/29 09:05:51;;;;;;;2.80;1.10;;;;;;;13.17;44.87;100731.95;1664055;84;21038;-65
2022/04/29 09:08:21;;;;;;;2.55;1.30;;;;;;;13.30;44.94;100744.56;1672012;84;21079;-65
2022/04/29 09:10:53;;;;;;;3.52;1.40;;;;;;;13.38;44.49;100731.98;1662477;85;20982;-65
2022/04/29 09:13:24;;;;;;;3.95;1.72;;;;;;;13.63;44.62;100727.38;1666932;85;21192;-65
2022/04/29 09:15:58;;;;;;;2.77;1.12;;;;;;;13.58;44.14;100724.13;1657779;85;21105;-65
2022/04/29 09:18:39;;;;;;;2.60;1.42;;;;;;;13.61;43.58;100739.73;1659478;85;21621;-65
2022/04/29 09:21:18;;;;;;;2.62;1.12;;;;;;;13.67;44.13;100732.05;1659709;84;21068;-65
2022/04/29 09:23:57;;;;;;;1.95;0.80;;;;;;;13.92;44.64;100735.75;1651183;85;21097;-64
2022/04/29 09:26:43;;;;;;;1.87;1.07;;;;;;;14.12;43.07;100741.87;1665817;84;21175;-65
2022/04/29 09:30:44;;;;;;;1.77;0.90;;;;;;;14.14;42.06;100726.88;1820534;77;22741;-62
2022/04/29 09:33:24;;;;;;;2.17;0.95;;;;;;;14.27;43.44;100719.67;1818226;77;21067;-64
2022/04/29 09:35:53;;;;;;;7.47;1.10;;;;;;;14.25;40.67;100730.70;1819861;77;21062;-65
2022/04/29 09:41:09;;;;;;;1.47;0.60;;;;;;;14.09;38.70;100741.08;1825192;77;20947;-65
2022/04/29 09:43:44;;;;;;;0.93;0.50;;;;;;;13.48;39.00;100743.80;1797119;78;20950;-64
2022/04/29 09:46:20;;;;;;;0.85;0.40;;;;;;;13.09;38.97;100741.90;1821221;77;20899;-65
2022/04/29 09:49:12;;;;;;;2.02;0.80;;;;;;;13.21;40.03;100735.28;1818381;77;21923;-63
2022/04/29 09:51:45;;;;;;;2.77;0.75;;;;;;;13.59;40.13;100734.16;1814124;77;20920;-65
2022/04/29 09:54:23;;;;;;;0.85;0.72;;;;;;;14.07;41.26;100711.41;1815274;77;21041;-64
2022/04/29 09:57:19;;;;;;;9.43;1.20;;;;;;;14.59;38.95;100717.78;1815396;77;20942;-64
2022/04/29 09:59:54;;;;;;;3.98;1.25;;;;;;;14.53;39.95;100701.37;1821481;77;21546;-64
2022/04/29 10:02:24;;;;;;;6.35;1.00;;;;;;;13.98;39.53;100719.71;1817318;78;21271;-62
2022/04/29 10:04:54;;;;;;;2.77;1.20;;;;;;;13.78;39.33;100724.55;1821478;78;22234;-63
2022/04/29 10:07:24;;;;;;;1.45;0.70;;;;;;;13.59;40.05;100723.19;1818489;77;20970;-63
2022/04/29 10:09:54;;;;;;;3.70;1.25;;;;;;;13.60;40.26;100719.63;1818938;77;21092;-63
2022/04/29 10:12:23;;;;;;;4.08;0.98;;;;;;;13.92;40.28;100726.56;1819690;77;20933;-63
2022/04/29 10:14:55;;;;;;;1.32;1.00;;;;;;;13.89;39.31;100726.67;1823029;77;21959;-63
2022/04/29 10:22:04;;;;;;;2.33;1.20;;;;;;;13.93;40.08;100715.59;1742697;81;21007;-64
2022/04/29 10:24:31;;;;;;;1.12;0.80;;;;;;;13.69;39.77;100721.47;1751318;81;21090;-64
2022/04/29 10:29:33;;;;;;;4.00;1.10;;;;;;;13.43;40.33;100726.08;1854388;76;22590;-62
2022/04/29 10:32:09;;;;;;;3.02;0.88;;;;;;;13.26;40.12;100728.58;1813791;77;20979;-63
2022/04/29 10:34:37;;;;;;;5.43;1.13;;;;;;;13.19;40.34;100735.37;1822877;78;21060;-63
2022/04/29 10:37:13;;;;;;;3.33;1.02;;;;;;;13.11;40.00;100731.36;1821286;78;21066;-63
2022/04/29 10:41:19;;;;;;;3.12;0.85;;;;;;;13.11;40.42;100734.83;1847273;75;22717;-63
2022/04/29 10:43:54;;;;;;;0.90;0.62;;;;;;;13.17;40.36;100739.81;1817942;77;21002;-64
2022/04/29 10:46:38;;;;;;;2.70;0.98;;;;;;;13.34;40.30;100734.35;1823203;77;21047;-64
2022/04/29 10:49:30;;;;;;;4.05;0.80;;;;;;;13.49;40.32;100734.99;1822121;77;21036;-62
2022/04/29 10:52:28;;;;;;;1.67;0.82;;;;;;;13.61;40.20;100739.73;1825002;77;20899;-64
2022/04/29 10:54:59;;;;;;;2.70;0.90;;;;;;;13.57;39.91;100727.64;1739661;80;20965;-63
2022/04/29 10:57:46;;;;;;;5.55;1.10;;;;;;;13.99;39.45;100730.59;1737528;80;21001;-63
2022/04/29 11:00:13;;;;;;;;;;;;;;;14.18;39.30;100725.83;1742131;80;21327;-63
2022/04/29 11:02:41;;;;;;;1.25;0.50;;;;;;;13.98;39.31;100728.91;1740249;80;20084;-63
2022/04/29 11:05:12;;;;;;;2.45;0.68;;;;;;;14.10;39.30;100728.80;1747627;80;21211;-63
2022/04/29 11:07:48;;;;;;;3.72;0.72;;;;;;;14.28;39.51;100724.45;1747097;80;21149;-64
2022/04/29 11:10:24;;;;;;;1.85;0.75;;;;;;;14.22;39.11;100735.25;1750302;80;22232;-63
2022/04/29 11:13:03;;;;;;;3.67;0.55;;;;;;;14.19;39.00;100732.77;1748535;78;21676;-63
2022/04/29 11:15:45;;;;;;;2.25;0.80;;;;;;;14.31;39.26;100730.88;1754683;80;21112;-64
2022/04/29 11:18:25;;;;;;;3.70;0.70;;;;;;;14.52;38.60;100728.59;1752984;80;21085;-63
2022/04/29 11:20:59;;;;;;;2.35;0.80;;;;;;;14.72;37.59;100730.27;1759871;80;21017;-63
2022/04/29 11:26:15;;;;;;;2.72;0.70;;;;;;;14.50;38.32;100730.41;1751938;80;21110;-62
2022/04/29 11:28:43;;;;;;;1.72;0.70;;;;;;;14.49;37.12;100744.48;1759054;81;21005;-63
2022/04/29 11:31:10;;;;;;;;;;;;;;;14.01;37.37;100724.81;1763018;80;21067;-63
2022/04/29 11:33:39;;;;;;;2.40;0.70;;;;;;;13.70;37.14;100743.72;1746889;80;20413;-62
2022/04/29 11:36:09;;;;;;;0.65;0.40;;;;;;;13.54;37.54;100745.30;1765530;80;20977;-63
2022/04/29 11:38:44;;;;;;;2.72;0.80;;;;;;;13.36;37.49;100739.05;1753981;80;21716;-63
2022/04/29 11:41:27;;;;;;;1.35;0.50;;;;;;;13.30;37.21;100732.30;1746990;80;21517;-63
2022/04/29 11:43:52;;;;;;;1.45;0.60;;;;;;;13.39;37.72;100736.33;1750594;80;20997;-63
2022/04/29 11:46:22;;;;;;;0.88;0.50;;;;;;;13.45;37.39;100741.31;1748690;80;21003;-63
2022/04/29 11:48:59;;;;;;;3.10;0.50;;;;;;;13.49;37.45;100738.08;1766405;80;20965;-63
2022/04/29 11:51:27;;;;;;;1.57;0.70;;;;;;;13.36;35.80;100735.12;1762775;80;21090;-63
2022/04/29 11:54:05;;;;;;;2.00;0.75;;;;;;;13.34;37.02;100746.16;1768922;80;20988;-63
2022/04/29 11:56:35;;;;;;;1.55;0.60;;;;;;;13.58;37.20;100726.75;1754915;80;21013;-63
2022/04/29 11:59:04;;;;;;;4.42;0.70;;;;;;;13.83;37.07;100730.89;1737181;80;20989;-64
2022/04/29 12:01:32;;;;;;;2.10;0.72;;;;;;;13.55;35.35;100736.03;1736014;80;21025;-62
2022/04/29 12:03:59;;;;;;;;;;;;;;;13.38;36.31;100734.60;1741939;80;22253;-63
2022/04/29 12:06:25;;;;;;;3.15;0.90;;;;;;;13.16;35.19;100735.50;1744397;80;26439;-63